Forest, Washington
Current Conditions -  °F | °C
As of 5:35 PM on Friday 28 Nov 2014 (Local Time) from KCLS Reporting Station
Drizzle Drizzle  
Wind Chill: 39°   Ceiling: 4200
Heat Index: 43°   Visibility: 10mi
Dew Point: 39°   Wind: 6mph
Humidity: 87%   Direction: NA
Pressure: 29.53"   Gusts: NA
Location:  46.6561°N, 122.993°W
Report Text: KCLS 290135Z AUTO VRB05KT 10SM -DZ SCT026 BKN042 OVC055 06/04 A2953 RMK AO2
Loading
Personal Weather Stations






























Interactive Weather Map New forecast layout! Learn more

10-Day Weather Forecast

Advertisements
Track Severe Weather on mobile